sensor_id;sensor_type;location;lat;lon;timestamp;P1;durP1;ratioP1;P2;durP2;ratioP2
78840;SDS011;68379;47.190;27.558;2023-06-22T00:00:14;9.80;;;6.80;;
78840;SDS011;68379;47.190;27.558;2023-06-22T00:03:03;8.50;;;6.00;;
78840;SDS011;68379;47.190;27.558;2023-06-22T00:05:32;12.80;;;6.10;;
78840;SDS011;68379;47.190;27.558;2023-06-22T00:08:03;10.50;;;7.20;;
78840;SDS011;68379;47.190;27.558;2023-06-22T00:10:32;11.30;;;7.40;;
78840;SDS011;68379;47.190;27.558;2023-06-22T00:13:01;11.60;;;7.40;;
78840;SDS011;68379;47.190;27.558;2023-06-22T00:15:30;16.90;;;8.20;;
78840;SDS011;68379;47.190;27.558;2023-06-22T00:17:59;10.60;;;6.60;;
78840;SDS011;68379;47.190;27.558;2023-06-22T00:20:29;9.80;;;7.00;;
78840;SDS011;68379;47.190;27.558;2023-06-22T00:23:00;11.20;;;7.30;;
78840;SDS011;68379;47.190;27.558;2023-06-22T00:25:29;11.00;;;7.20;;
78840;SDS011;68379;47.190;27.558;2023-06-22T00:27:58;10.50;;;7.60;;
78840;SDS011;68379;47.190;27.558;2023-06-22T00:30:26;14.40;;;8.30;;
78840;SDS011;68379;47.190;27.558;2023-06-22T00:32:55;13.70;;;7.20;;
78840;SDS011;68379;47.190;27.558;2023-06-22T00:35:24;11.70;;;7.50;;
78840;SDS011;68379;47.190;27.558;2023-06-22T00:37:55;10.60;;;6.70;;
78840;SDS011;68379;47.190;27.558;2023-06-22T00:40:27;12.10;;;6.10;;
78840;SDS011;68379;47.190;27.558;2023-06-22T00:42:56;10.20;;;6.60;;
78840;SDS011;68379;47.190;27.558;2023-06-22T00:45:26;11.80;;;8.10;;
78840;SDS011;68379;47.190;27.558;2023-06-22T00:47:55;13.30;;;7.70;;
78840;SDS011;68379;47.190;27.558;2023-06-22T00:50:25;11.70;;;7.30;;
78840;SDS011;68379;47.190;27.558;2023-06-22T00:53:00;12.20;;;7.30;;
78840;SDS011;68379;47.190;27.558;2023-06-22T00:55:36;9.00;;;6.70;;
78840;SDS011;68379;47.190;27.558;2023-06-22T00:58:06;14.20;;;7.00;;
78840;SDS011;68379;47.190;27.558;2023-06-22T01:00:37;11.60;;;7.10;;
78840;SDS011;68379;47.190;27.558;2023-06-22T01:03:06;11.10;;;7.40;;
78840;SDS011;68379;47.190;27.558;2023-06-22T01:05:36;11.50;;;6.90;;
78840;SDS011;68379;47.190;27.558;2023-06-22T01:08:08;11.30;;;7.50;;
78840;SDS011;68379;47.190;27.558;2023-06-22T01:10:51;12.40;;;7.20;;
78840;SDS011;68379;47.190;27.558;2023-06-22T01:13:28;14.70;;;8.20;;
78840;SDS011;68379;47.190;27.558;2023-06-22T01:16:01;14.60;;;8.20;;
78840;SDS011;68379;47.190;27.558;2023-06-22T01:18:35;13.40;;;7.60;;
78840;SDS011;68379;47.190;27.558;2023-06-22T01:23:42;12.80;;;7.70;;
78840;SDS011;68379;47.190;27.558;2023-06-22T01:26:32;12.00;;;7.50;;
78840;SDS011;68379;47.190;27.558;2023-06-22T01:29:06;11.40;;;8.00;;
78840;SDS011;68379;47.190;27.558;2023-06-22T01:31:40;11.70;;;8.20;;
78840;SDS011;68379;47.190;27.558;2023-06-22T01:34:12;13.50;;;8.40;;
78840;SDS011;68379;47.190;27.558;2023-06-22T01:36:42;11.70;;;7.00;;
78840;SDS011;68379;47.190;27.558;2023-06-22T01:39:11;13.70;;;7.20;;
78840;SDS011;68379;47.190;27.558;2023-06-22T01:41:42;11.10;;;7.30;;
78840;SDS011;68379;47.190;27.558;2023-06-22T01:44:11;11.70;;;7.00;;
78840;SDS011;68379;47.190;27.558;2023-06-22T01:46:40;12.10;;;7.70;;
78840;SDS011;68379;47.190;27.558;2023-06-22T01:49:11;15.60;;;7.80;;
78840;SDS011;68379;47.190;27.558;2023-06-22T01:51:40;11.60;;;6.70;;
78840;SDS011;68379;47.190;27.558;2023-06-22T01:54:09;11.90;;;7.80;;
78840;SDS011;68379;47.190;27.558;2023-06-22T01:56:38;11.90;;;7.10;;
78840;SDS011;68379;47.190;27.558;2023-06-22T01:59:09;12.10;;;7.60;;
78840;SDS011;68379;47.190;27.558;2023-06-22T02:01:47;10.20;;;6.40;;
78840;SDS011;68379;47.190;27.558;2023-06-22T02:04:23;10.60;;;6.50;;
78840;SDS011;68379;47.190;27.558;2023-06-22T02:07:00;11.60;;;6.90;;
78840;SDS011;68379;47.190;27.558;2023-06-22T02:09:37;12.50;;;7.60;;
78840;SDS011;68379;47.190;27.558;2023-06-22T02:12:11;11.80;;;7.40;;
78840;SDS011;68379;47.190;27.558;2023-06-22T02:14:41;11.80;;;8.00;;
78840;SDS011;68379;47.190;27.558;2023-06-22T02:17:10;10.70;;;6.50;;
78840;SDS011;68379;47.190;27.558;2023-06-22T02:19:41;10.00;;;6.30;;
78840;SDS011;68379;47.190;27.558;2023-06-22T02:22:10;8.60;;;5.80;;
78840;SDS011;68379;47.190;27.558;2023-06-22T02:24:40;11.90;;;6.30;;
78840;SDS011;68379;47.190;27.558;2023-06-22T02:27:09;10.30;;;6.70;;
78840;SDS011;68379;47.190;27.558;2023-06-22T02:29:38;10.50;;;7.60;;
78840;SDS011;68379;47.190;27.558;2023-06-22T02:32:08;10.40;;;7.20;;
78840;SDS011;68379;47.190;27.558;2023-06-22T02:34:37;12.30;;;7.70;;
78840;SDS011;68379;47.190;27.558;2023-06-22T02:37:06;9.90;;;6.20;;
78840;SDS011;68379;47.190;27.558;2023-06-22T02:39:35;11.20;;;6.80;;
78840;SDS011;68379;47.190;27.558;2023-06-22T02:42:05;10.00;;;6.30;;
78840;SDS011;68379;47.190;27.558;2023-06-22T02:44:34;9.70;;;6.80;;
78840;SDS011;68379;47.190;27.558;2023-06-22T02:47:03;10.80;;;6.90;;
78840;SDS011;68379;47.190;27.558;2023-06-22T02:49:32;11.50;;;7.00;;
78840;SDS011;68379;47.190;27.558;2023-06-22T02:52:01;9.70;;;6.10;;
78840;SDS011;68379;47.190;27.558;2023-06-22T02:54:31;9.40;;;6.20;;
78840;SDS011;68379;47.190;27.558;2023-06-22T02:57:00;9.10;;;6.10;;
78840;SDS011;68379;47.190;27.558;2023-06-22T02:59:30;12.30;;;7.20;;
78840;SDS011;68379;47.190;27.558;2023-06-22T03:01:59;12.30;;;7.00;;
78840;SDS011;68379;47.190;27.558;2023-06-22T03:04:28;11.40;;;7.40;;
78840;SDS011;68379;47.190;27.558;2023-06-22T03:06:58;12.20;;;8.10;;
78840;SDS011;68379;47.190;27.558;2023-06-22T03:09:27;12.10;;;7.40;;
78840;SDS011;68379;47.190;27.558;2023-06-22T03:11:57;12.70;;;7.30;;
78840;SDS011;68379;47.190;27.558;2023-06-22T03:14:26;11.90;;;7.20;;
78840;SDS011;68379;47.190;27.558;2023-06-22T03:16:55;11.90;;;7.50;;
78840;SDS011;68379;47.190;27.558;2023-06-22T03:19:30;11.10;;;7.60;;
78840;SDS011;68379;47.190;27.558;2023-06-22T03:21:59;11.10;;;7.60;;
78840;SDS011;68379;47.190;27.558;2023-06-22T03:24:28;13.30;;;8.20;;
78840;SDS011;68379;47.190;27.558;2023-06-22T03:26:57;13.80;;;8.30;;
78840;SDS011;68379;47.190;27.558;2023-06-22T03:29:27;11.50;;;7.60;;
78840;SDS011;68379;47.190;27.558;2023-06-22T03:31:56;11.40;;;7.20;;
78840;SDS011;68379;47.190;27.558;2023-06-22T03:34:25;12.50;;;7.90;;
78840;SDS011;68379;47.190;27.558;2023-06-22T03:36:54;11.80;;;7.70;;
78840;SDS011;68379;47.190;27.558;2023-06-22T03:39:24;14.70;;;8.90;;
78840;SDS011;68379;47.190;27.558;2023-06-22T03:41:53;13.70;;;8.70;;
78840;SDS011;68379;47.190;27.558;2023-06-22T03:44:22;11.20;;;7.60;;
78840;SDS011;68379;47.190;27.558;2023-06-22T03:46:51;11.80;;;7.60;;
78840;SDS011;68379;47.190;27.558;2023-06-22T03:49:20;11.00;;;7.40;;
78840;SDS011;68379;47.190;27.558;2023-06-22T03:51:49;13.20;;;8.20;;
78840;SDS011;68379;47.190;27.558;2023-06-22T03:54:18;12.90;;;7.70;;
78840;SDS011;68379;47.190;27.558;2023-06-22T03:56:47;12.90;;;7.80;;
78840;SDS011;68379;47.190;27.558;2023-06-22T03:59:16;10.80;;;7.70;;
78840;SDS011;68379;47.190;27.558;2023-06-22T04:01:48;10.60;;;8.10;;
78840;SDS011;68379;47.190;27.558;2023-06-22T04:04:18;13.10;;;8.40;;
78840;SDS011;68379;47.190;27.558;2023-06-22T04:06:47;11.60;;;6.90;;
78840;SDS011;68379;47.190;27.558;2023-06-22T04:09:16;10.20;;;7.00;;
78840;SDS011;68379;47.190;27.558;2023-06-22T04:11:45;9.50;;;6.90;;
78840;SDS011;68379;47.190;27.558;2023-06-22T04:14:14;11.80;;;7.50;;
78840;SDS011;68379;47.190;27.558;2023-06-22T04:16:43;11.00;;;7.60;;
78840;SDS011;68379;47.190;27.558;2023-06-22T04:19:12;11.60;;;7.70;;
78840;SDS011;68379;47.190;27.558;2023-06-22T04:21:44;10.80;;;8.10;;
78840;SDS011;68379;47.190;27.558;2023-06-22T04:24:15;10.60;;;7.50;;
78840;SDS011;68379;47.190;27.558;2023-06-22T04:26:44;9.10;;;6.40;;
78840;SDS011;68379;47.190;27.558;2023-06-22T04:29:14;10.30;;;6.60;;
78840;SDS011;68379;47.190;27.558;2023-06-22T04:31:42;10.60;;;6.90;;
78840;SDS011;68379;47.190;27.558;2023-06-22T04:34:11;9.80;;;6.80;;
78840;SDS011;68379;47.190;27.558;2023-06-22T04:36:44;13.30;;;7.70;;
78840;SDS011;68379;47.190;27.558;2023-06-22T04:39:12;10.90;;;8.20;;
78840;SDS011;68379;47.190;27.558;2023-06-22T04:41:42;10.80;;;7.80;;
78840;SDS011;68379;47.190;27.558;2023-06-22T04:44:11;10.70;;;7.80;;
78840;SDS011;68379;47.190;27.558;2023-06-22T04:46:51;11.80;;;8.20;;
78840;SDS011;68379;47.190;27.558;2023-06-22T04:49:21;10.00;;;6.80;;
78840;SDS011;68379;47.190;27.558;2023-06-22T04:51:50;11.00;;;6.60;;
78840;SDS011;68379;47.190;27.558;2023-06-22T04:54:19;10.50;;;7.50;;
78840;SDS011;68379;47.190;27.558;2023-06-22T04:56:48;10.10;;;7.60;;
78840;SDS011;68379;47.190;27.558;2023-06-22T04:59:24;13.40;;;7.80;;
78840;SDS011;68379;47.190;27.558;2023-06-22T05:01:55;11.60;;;7.30;;
78840;SDS011;68379;47.190;27.558;2023-06-22T05:04:24;9.90;;;7.70;;
78840;SDS011;68379;47.190;27.558;2023-06-22T05:06:54;9.90;;;7.20;;
78840;SDS011;68379;47.190;27.558;2023-06-22T05:09:23;11.10;;;7.60;;
78840;SDS011;68379;47.190;27.558;2023-06-22T05:11:52;12.10;;;7.80;;
78840;SDS011;68379;47.190;27.558;2023-06-22T05:14:21;10.50;;;8.00;;
78840;SDS011;68379;47.190;27.558;2023-06-22T05:16:51;15.40;;;9.10;;
78840;SDS011;68379;47.190;27.558;2023-06-22T05:19:20;19.50;;;10.80;;
78840;SDS011;68379;47.190;27.558;2023-06-22T05:21:49;15.20;;;9.70;;
78840;SDS011;68379;47.190;27.558;2023-06-22T05:24:18;14.80;;;9.50;;
78840;SDS011;68379;47.190;27.558;2023-06-22T05:26:47;16.70;;;9.70;;
78840;SDS011;68379;47.190;27.558;2023-06-22T05:29:15;13.40;;;8.90;;
78840;SDS011;68379;47.190;27.558;2023-06-22T05:31:44;12.80;;;9.00;;
78840;SDS011;68379;47.190;27.558;2023-06-22T05:34:14;15.40;;;10.00;;
78840;SDS011;68379;47.190;27.558;2023-06-22T05:36:43;14.70;;;10.30;;
78840;SDS011;68379;47.190;27.558;2023-06-22T05:39:12;14.60;;;10.20;;
78840;SDS011;68379;47.190;27.558;2023-06-22T05:41:42;15.40;;;10.40;;
78840;SDS011;68379;47.190;27.558;2023-06-22T05:44:14;15.00;;;10.40;;
78840;SDS011;68379;47.190;27.558;2023-06-22T05:46:43;15.60;;;10.00;;
78840;SDS011;68379;47.190;27.558;2023-06-22T05:49:13;13.80;;;8.30;;
78840;SDS011;68379;47.190;27.558;2023-06-22T05:51:43;16.30;;;9.70;;
78840;SDS011;68379;47.190;27.558;2023-06-22T05:54:12;17.50;;;9.70;;
78840;SDS011;68379;47.190;27.558;2023-06-22T05:56:42;13.80;;;11.40;;
78840;SDS011;68379;47.190;27.558;2023-06-22T05:59:12;13.80;;;10.50;;
78840;SDS011;68379;47.190;27.558;2023-06-22T06:01:40;17.00;;;9.80;;
78840;SDS011;68379;47.190;27.558;2023-06-22T06:04:10;14.70;;;10.30;;
78840;SDS011;68379;47.190;27.558;2023-06-22T06:06:39;16.90;;;10.60;;
78840;SDS011;68379;47.190;27.558;2023-06-22T06:09:08;13.20;;;10.90;;
78840;SDS011;68379;47.190;27.558;2023-06-22T06:11:38;15.20;;;10.50;;
78840;SDS011;68379;47.190;27.558;2023-06-22T06:14:07;14.60;;;10.50;;
78840;SDS011;68379;47.190;27.558;2023-06-22T06:16:36;12.10;;;9.30;;
78840;SDS011;68379;47.190;27.558;2023-06-22T06:19:05;14.00;;;10.50;;
78840;SDS011;68379;47.190;27.558;2023-06-22T06:21:34;15.50;;;11.30;;
78840;SDS011;68379;47.190;27.558;2023-06-22T06:24:04;13.30;;;10.10;;
78840;SDS011;68379;47.190;27.558;2023-06-22T06:26:33;16.50;;;10.70;;
78840;SDS011;68379;47.190;27.558;2023-06-22T06:29:03;16.90;;;11.50;;
78840;SDS011;68379;47.190;27.558;2023-06-22T06:31:32;15.40;;;10.60;;
78840;SDS011;68379;47.190;27.558;2023-06-22T06:34:01;14.80;;;11.10;;
78840;SDS011;68379;47.190;27.558;2023-06-22T06:36:30;15.30;;;10.60;;
78840;SDS011;68379;47.190;27.558;2023-06-22T06:38:59;17.40;;;11.40;;
78840;SDS011;68379;47.190;27.558;2023-06-22T06:41:30;15.20;;;10.70;;
78840;SDS011;68379;47.190;27.558;2023-06-22T06:43:59;12.80;;;10.10;;
78840;SDS011;68379;47.190;27.558;2023-06-22T06:46:29;14.10;;;11.80;;
78840;SDS011;68379;47.190;27.558;2023-06-22T06:48:58;15.30;;;10.80;;
78840;SDS011;68379;47.190;27.558;2023-06-22T06:51:27;17.10;;;10.90;;
78840;SDS011;68379;47.190;27.558;2023-06-22T06:53:56;13.60;;;10.30;;
78840;SDS011;68379;47.190;27.558;2023-06-22T06:56:25;13.70;;;10.20;;
78840;SDS011;68379;47.190;27.558;2023-06-22T06:58:55;13.50;;;10.20;;
78840;SDS011;68379;47.190;27.558;2023-06-22T07:01:25;11.60;;;10.30;;
78840;SDS011;68379;47.190;27.558;2023-06-22T07:03:54;12.10;;;9.90;;
78840;SDS011;68379;47.190;27.558;2023-06-22T07:06:24;15.80;;;11.60;;
78840;SDS011;68379;47.190;27.558;2023-06-22T07:11:25;16.70;;;10.30;;
78840;SDS011;68379;47.190;27.558;2023-06-22T07:13:54;11.80;;;10.10;;
78840;SDS011;68379;47.190;27.558;2023-06-22T07:16:23;11.50;;;9.60;;
78840;SDS011;68379;47.190;27.558;2023-06-22T07:18:56;14.60;;;10.00;;
78840;SDS011;68379;47.190;27.558;2023-06-22T07:21:25;12.40;;;10.60;;
78840;SDS011;68379;47.190;27.558;2023-06-22T07:23:54;13.90;;;10.70;;
78840;SDS011;68379;47.190;27.558;2023-06-22T07:26:24;13.30;;;10.10;;
78840;SDS011;68379;47.190;27.558;2023-06-22T07:28:53;17.10;;;11.80;;
78840;SDS011;68379;47.190;27.558;2023-06-22T07:31:23;13.10;;;11.30;;
78840;SDS011;68379;47.190;27.558;2023-06-22T07:33:53;14.90;;;10.90;;
78840;SDS011;68379;47.190;27.558;2023-06-22T07:36:22;13.50;;;10.50;;
78840;SDS011;68379;47.190;27.558;2023-06-22T07:38:51;13.40;;;10.10;;
78840;SDS011;68379;47.190;27.558;2023-06-22T07:41:20;12.00;;;10.30;;
78840;SDS011;68379;47.190;27.558;2023-06-22T07:43:49;11.50;;;10.30;;
78840;SDS011;68379;47.190;27.558;2023-06-22T07:46:19;11.90;;;10.10;;
78840;SDS011;68379;47.190;27.558;2023-06-22T07:48:48;12.60;;;11.00;;
78840;SDS011;68379;47.190;27.558;2023-06-22T07:51:17;11.80;;;10.30;;
78840;SDS011;68379;47.190;27.558;2023-06-22T07:53:46;14.10;;;10.80;;
78840;SDS011;68379;47.190;27.558;2023-06-22T07:56:15;13.00;;;10.30;;
78840;SDS011;68379;47.190;27.558;2023-06-22T07:58:46;12.70;;;11.20;;
78840;SDS011;68379;47.190;27.558;2023-06-22T08:01:15;12.90;;;11.50;;
78840;SDS011;68379;47.190;27.558;2023-06-22T08:03:44;15.50;;;12.10;;
78840;SDS011;68379;47.190;27.558;2023-06-22T08:06:13;13.10;;;11.10;;
78840;SDS011;68379;47.190;27.558;2023-06-22T08:08:43;15.60;;;10.90;;
78840;SDS011;68379;47.190;27.558;2023-06-22T08:11:14;16.70;;;12.20;;
78840;SDS011;68379;47.190;27.558;2023-06-22T08:13:44;13.30;;;12.00;;
78840;SDS011;68379;47.190;27.558;2023-06-22T08:16:12;13.70;;;11.20;;
78840;SDS011;68379;47.190;27.558;2023-06-22T08:18:42;13.00;;;11.20;;
78840;SDS011;68379;47.190;27.558;2023-06-22T08:21:11;12.30;;;10.90;;
78840;SDS011;68379;47.190;27.558;2023-06-22T08:23:40;11.70;;;10.40;;
78840;SDS011;68379;47.190;27.558;2023-06-22T08:26:11;14.30;;;10.90;;
78840;SDS011;68379;47.190;27.558;2023-06-22T08:28:40;12.40;;;10.90;;
78840;SDS011;68379;47.190;27.558;2023-06-22T08:31:10;15.00;;;11.70;;
78840;SDS011;68379;47.190;27.558;2023-06-22T08:33:39;14.90;;;11.50;;
78840;SDS011;68379;47.190;27.558;2023-06-22T08:36:10;12.10;;;10.60;;
78840;SDS011;68379;47.190;27.558;2023-06-22T08:38:40;13.00;;;11.10;;
78840;SDS011;68379;47.190;27.558;2023-06-22T08:41:09;13.10;;;10.50;;
78840;SDS011;68379;47.190;27.558;2023-06-22T08:43:38;11.20;;;10.10;;
78840;SDS011;68379;47.190;27.558;2023-06-22T08:46:07;11.10;;;10.00;;
78840;SDS011;68379;47.190;27.558;2023-06-22T08:48:36;13.90;;;10.60;;
78840;SDS011;68379;47.190;27.558;2023-06-22T08:51:05;12.60;;;10.40;;
78840;SDS011;68379;47.190;27.558;2023-06-22T08:53:34;11.50;;;10.20;;
78840;SDS011;68379;47.190;27.558;2023-06-22T08:56:04;11.60;;;10.40;;
78840;SDS011;68379;47.190;27.558;2023-06-22T08:58:33;11.30;;;9.60;;
78840;SDS011;68379;47.190;27.558;2023-06-22T09:01:02;11.30;;;9.60;;
78840;SDS011;68379;47.190;27.558;2023-06-22T09:03:31;12.50;;;10.40;;
78840;SDS011;68379;47.190;27.558;2023-06-22T09:06:03;11.70;;;10.20;;
78840;SDS011;68379;47.190;27.558;2023-06-22T09:08:32;13.10;;;11.20;;
78840;SDS011;68379;47.190;27.558;2023-06-22T09:11:01;11.60;;;10.30;;
78840;SDS011;68379;47.190;27.558;2023-06-22T09:13:31;11.30;;;10.10;;
78840;SDS011;68379;47.190;27.558;2023-06-22T09:16:01;11.10;;;9.30;;
78840;SDS011;68379;47.190;27.558;2023-06-22T09:18:31;13.70;;;11.60;;
78840;SDS011;68379;47.190;27.558;2023-06-22T09:21:01;13.60;;;10.70;;
78840;SDS011;68379;47.190;27.558;2023-06-22T09:23:30;11.90;;;10.40;;
78840;SDS011;68379;47.190;27.558;2023-06-22T09:26:00;12.60;;;11.10;;
78840;SDS011;68379;47.190;27.558;2023-06-22T09:28:31;11.00;;;9.90;;
78840;SDS011;68379;47.190;27.558;2023-06-22T09:31:00;11.40;;;10.20;;
78840;SDS011;68379;47.190;27.558;2023-06-22T09:33:29;14.60;;;11.10;;
78840;SDS011;68379;47.190;27.558;2023-06-22T09:35:58;12.50;;;11.20;;
78840;SDS011;68379;47.190;27.558;2023-06-22T09:38:28;13.00;;;11.70;;
78840;SDS011;68379;47.190;27.558;2023-06-22T09:40:57;13.30;;;11.20;;
78840;SDS011;68379;47.190;27.558;2023-06-22T09:43:26;12.20;;;10.90;;
78840;SDS011;68379;47.190;27.558;2023-06-22T09:45:56;13.00;;;11.70;;
78840;SDS011;68379;47.190;27.558;2023-06-22T09:48:25;12.40;;;10.90;;
78840;SDS011;68379;47.190;27.558;2023-06-22T09:50:55;11.80;;;10.60;;
78840;SDS011;68379;47.190;27.558;2023-06-22T09:53:24;13.80;;;11.60;;
78840;SDS011;68379;47.190;27.558;2023-06-22T09:55:53;12.10;;;10.70;;
78840;SDS011;68379;47.190;27.558;2023-06-22T09:58:24;15.50;;;10.90;;
78840;SDS011;68379;47.190;27.558;2023-06-22T10:00:53;11.60;;;10.30;;
78840;SDS011;68379;47.190;27.558;2023-06-22T10:03:23;12.80;;;11.20;;
78840;SDS011;68379;47.190;27.558;2023-06-22T10:05:53;12.30;;;11.10;;
78840;SDS011;68379;47.190;27.558;2023-06-22T10:08:22;12.50;;;10.80;;
78840;SDS011;68379;47.190;27.558;2023-06-22T10:10:51;14.80;;;11.10;;
78840;SDS011;68379;47.190;27.558;2023-06-22T10:13:20;12.50;;;11.20;;
78840;SDS011;68379;47.190;27.558;2023-06-22T10:15:49;13.30;;;11.50;;
78840;SDS011;68379;47.190;27.558;2023-06-22T10:18:21;11.60;;;10.50;;
78840;SDS011;68379;47.190;27.558;2023-06-22T10:20:52;12.00;;;10.80;;
78840;SDS011;68379;47.190;27.558;2023-06-22T10:23:21;11.50;;;10.20;;
78840;SDS011;68379;47.190;27.558;2023-06-22T10:25:50;12.20;;;9.70;;
78840;SDS011;68379;47.190;27.558;2023-06-22T10:28:24;14.00;;;10.10;;
78840;SDS011;68379;47.190;27.558;2023-06-22T10:30:59;11.20;;;10.10;;
78840;SDS011;68379;47.190;27.558;2023-06-22T10:33:29;13.00;;;10.90;;
78840;SDS011;68379;47.190;27.558;2023-06-22T10:36:00;12.40;;;10.40;;
78840;SDS011;68379;47.190;27.558;2023-06-22T10:38:30;12.40;;;9.90;;
78840;SDS011;68379;47.190;27.558;2023-06-22T10:41:04;12.00;;;10.70;;
78840;SDS011;68379;47.190;27.558;2023-06-22T10:43:33;10.60;;;9.60;;
78840;SDS011;68379;47.190;27.558;2023-06-22T10:46:03;11.40;;;10.20;;
78840;SDS011;68379;47.190;27.558;2023-06-22T10:48:34;11.10;;;10.00;;
78840;SDS011;68379;47.190;27.558;2023-06-22T10:51:05;11.70;;;10.60;;
78840;SDS011;68379;47.190;27.558;2023-06-22T10:53:35;12.10;;;10.90;;
78840;SDS011;68379;47.190;27.558;2023-06-22T10:56:04;12.40;;;11.20;;
78840;SDS011;68379;47.190;27.558;2023-06-22T10:58:34;12.10;;;10.90;;
78840;SDS011;68379;47.190;27.558;2023-06-22T11:01:06;12.10;;;10.80;;
78840;SDS011;68379;47.190;27.558;2023-06-22T11:03:36;12.90;;;11.50;;
78840;SDS011;68379;47.190;27.558;2023-06-22T11:06:05;12.30;;;11.00;;
78840;SDS011;68379;47.190;27.558;2023-06-22T11:08:35;11.90;;;10.80;;
78840;SDS011;68379;47.190;27.558;2023-06-22T11:11:05;12.20;;;11.00;;
78840;SDS011;68379;47.190;27.558;2023-06-22T11:13:34;11.40;;;10.30;;
78840;SDS011;68379;47.190;27.558;2023-06-22T11:16:06;12.10;;;10.20;;
78840;SDS011;68379;47.190;27.558;2023-06-22T11:18:36;10.80;;;9.60;;
78840;SDS011;68379;47.190;27.558;2023-06-22T11:21:07;11.40;;;10.00;;
78840;SDS011;68379;47.190;27.558;2023-06-22T11:23:36;11.60;;;9.80;;
78840;SDS011;68379;47.190;27.558;2023-06-22T11:26:08;11.70;;;10.50;;
78840;SDS011;68379;47.190;27.558;2023-06-22T11:28:42;12.10;;;10.50;;
78840;SDS011;68379;47.190;27.558;2023-06-22T11:31:12;11.40;;;9.70;;
78840;SDS011;68379;47.190;27.558;2023-06-22T11:33:41;12.20;;;11.00;;
78840;SDS011;68379;47.190;27.558;2023-06-22T11:36:12;12.40;;;10.80;;
78840;SDS011;68379;47.190;27.558;2023-06-22T11:38:42;11.20;;;9.90;;
78840;SDS011;68379;47.190;27.558;2023-06-22T11:41:11;10.20;;;9.30;;
78840;SDS011;68379;47.190;27.558;2023-06-22T11:43:40;12.10;;;10.20;;
78840;SDS011;68379;47.190;27.558;2023-06-22T11:46:09;11.30;;;10.10;;
78840;SDS011;68379;47.190;27.558;2023-06-22T11:48:39;11.30;;;9.70;;
78840;SDS011;68379;47.190;27.558;2023-06-22T11:51:08;10.60;;;9.50;;
78840;SDS011;68379;47.190;27.558;2023-06-22T11:53:37;11.90;;;10.70;;
78840;SDS011;68379;47.190;27.558;2023-06-22T11:56:06;12.60;;;10.00;;
78840;SDS011;68379;47.190;27.558;2023-06-22T11:58:35;12.80;;;9.40;;
78840;SDS011;68379;47.190;27.558;2023-06-22T12:01:04;10.90;;;9.50;;
78840;SDS011;68379;47.190;27.558;2023-06-22T12:03:33;10.60;;;9.10;;
78840;SDS011;68379;47.190;27.558;2023-06-22T12:06:02;12.00;;;9.50;;
78840;SDS011;68379;47.190;27.558;2023-06-22T12:08:31;11.00;;;9.90;;
78840;SDS011;68379;47.190;27.558;2023-06-22T12:11:00;9.90;;;8.90;;
78840;SDS011;68379;47.190;27.558;2023-06-22T12:13:29;11.70;;;9.30;;
78840;SDS011;68379;47.190;27.558;2023-06-22T12:15:58;10.70;;;9.50;;
78840;SDS011;68379;47.190;27.558;2023-06-22T12:18:27;10.20;;;9.30;;
78840;SDS011;68379;47.190;27.558;2023-06-22T12:20:56;10.20;;;9.30;;
78840;SDS011;68379;47.190;27.558;2023-06-22T12:23:25;10.70;;;8.90;;
78840;SDS011;68379;47.190;27.558;2023-06-22T12:25:54;9.50;;;8.60;;
78840;SDS011;68379;47.190;27.558;2023-06-22T12:28:23;9.80;;;8.20;;
78840;SDS011;68379;47.190;27.558;2023-06-22T12:30:52;8.60;;;7.70;;
78840;SDS011;68379;47.190;27.558;2023-06-22T12:33:21;8.40;;;7.60;;
78840;SDS011;68379;47.190;27.558;2023-06-22T12:35:50;9.60;;;8.70;;
78840;SDS011;68379;47.190;27.558;2023-06-22T12:38:19;12.30;;;8.90;;
78840;SDS011;68379;47.190;27.558;2023-06-22T12:40:48;8.60;;;7.80;;
78840;SDS011;68379;47.190;27.558;2023-06-22T12:43:17;9.30;;;8.40;;
78840;SDS011;68379;47.190;27.558;2023-06-22T12:45:46;9.40;;;8.60;;
78840;SDS011;68379;47.190;27.558;2023-06-22T12:48:15;9.00;;;8.10;;
78840;SDS011;68379;47.190;27.558;2023-06-22T12:50:44;8.90;;;8.00;;
78840;SDS011;68379;47.190;27.558;2023-06-22T12:53:15;9.20;;;8.00;;
78840;SDS011;68379;47.190;27.558;2023-06-22T12:55:44;8.70;;;7.90;;
78840;SDS011;68379;47.190;27.558;2023-06-22T12:58:13;9.30;;;8.20;;
78840;SDS011;68379;47.190;27.558;2023-06-22T13:00:42;9.50;;;8.50;;
78840;SDS011;68379;47.190;27.558;2023-06-22T13:03:11;9.10;;;8.20;;
78840;SDS011;68379;47.190;27.558;2023-06-22T13:05:40;9.10;;;8.10;;
78840;SDS011;68379;47.190;27.558;2023-06-22T13:08:09;9.30;;;8.40;;
78840;SDS011;68379;47.190;27.558;2023-06-22T13:10:38;8.90;;;7.30;;
78840;SDS011;68379;47.190;27.558;2023-06-22T13:13:07;8.70;;;7.80;;
78840;SDS011;68379;47.190;27.558;2023-06-22T13:15:36;8.50;;;7.80;;
78840;SDS011;68379;47.190;27.558;2023-06-22T13:18:05;9.00;;;8.20;;
78840;SDS011;68379;47.190;27.558;2023-06-22T13:20:34;9.00;;;8.30;;
78840;SDS011;68379;47.190;27.558;2023-06-22T13:23:03;8.40;;;7.70;;
78840;SDS011;68379;47.190;27.558;2023-06-22T13:25:33;8.90;;;7.80;;
78840;SDS011;68379;47.190;27.558;2023-06-22T13:28:02;8.50;;;7.70;;
78840;SDS011;68379;47.190;27.558;2023-06-22T13:30:31;8.90;;;8.00;;
78840;SDS011;68379;47.190;27.558;2023-06-22T13:33:00;9.80;;;7.20;;
78840;SDS011;68379;47.190;27.558;2023-06-22T13:35:29;9.00;;;8.10;;
78840;SDS011;68379;47.190;27.558;2023-06-22T13:37:59;8.10;;;7.40;;
78840;SDS011;68379;47.190;27.558;2023-06-22T13:40:29;8.00;;;10.40;;
78840;SDS011;68379;47.190;27.558;2023-06-22T13:42:58;8.00;;;7.10;;
78840;SDS011;68379;47.190;27.558;2023-06-22T13:45:27;7.70;;;7.00;;
78840;SDS011;68379;47.190;27.558;2023-06-22T13:47:57;8.00;;;7.20;;
78840;SDS011;68379;47.190;27.558;2023-06-22T13:50:25;7.80;;;6.90;;
78840;SDS011;68379;47.190;27.558;2023-06-22T13:52:56;8.00;;;7.10;;
78840;SDS011;68379;47.190;27.558;2023-06-22T13:55:25;8.00;;;6.70;;
78840;SDS011;68379;47.190;27.558;2023-06-22T13:57:54;6.80;;;6.20;;
78840;SDS011;68379;47.190;27.558;2023-06-22T14:00:24;7.00;;;6.40;;
78840;SDS011;68379;47.190;27.558;2023-06-22T14:02:54;8.40;;;7.70;;
78840;SDS011;68379;47.190;27.558;2023-06-22T14:05:23;8.80;;;6.60;;
78840;SDS011;68379;47.190;27.558;2023-06-22T14:07:52;7.40;;;6.70;;
78840;SDS011;68379;47.190;27.558;2023-06-22T14:10:21;6.60;;;6.10;;
78840;SDS011;68379;47.190;27.558;2023-06-22T14:12:50;8.40;;;6.60;;
78840;SDS011;68379;47.190;27.558;2023-06-22T14:15:20;7.20;;;6.50;;
78840;SDS011;68379;47.190;27.558;2023-06-22T14:17:49;7.20;;;6.50;;
78840;SDS011;68379;47.190;27.558;2023-06-22T14:20:18;7.00;;;6.20;;
78840;SDS011;68379;47.190;27.558;2023-06-22T14:22:47;7.70;;;7.10;;
78840;SDS011;68379;47.190;27.558;2023-06-22T14:25:16;6.60;;;5.90;;
78840;SDS011;68379;47.190;27.558;2023-06-22T14:27:45;6.50;;;5.90;;
78840;SDS011;68379;47.190;27.558;2023-06-22T14:30:14;6.60;;;6.00;;
78840;SDS011;68379;47.190;27.558;2023-06-22T14:32:44;6.40;;;5.80;;
78840;SDS011;68379;47.190;27.558;2023-06-22T14:35:13;7.00;;;6.30;;
78840;SDS011;68379;47.190;27.558;2023-06-22T14:37:42;7.00;;;6.30;;